sensor_id;sensor_type;location;lat;lon;timestamp;P1;durP1;ratioP1;P2;durP2;ratioP2
67132;SDS011;54052;53.542;49.408;2023-01-08T00:03:33;5.38;;;3.88;;
67132;SDS011;54052;53.542;49.408;2023-01-08T00:06:47;5.10;;;3.97;;
67132;SDS011;54052;53.542;49.408;2023-01-08T00:12:36;5.75;;;3.92;;
67132;SDS011;54052;53.542;49.408;2023-01-08T00:15:12;7.53;;;4.40;;
67132;SDS011;54052;53.542;49.408;2023-01-08T00:21:20;7.15;;;4.50;;
67132;SDS011;54052;53.542;49.408;2023-01-08T00:27:29;6.53;;;4.22;;
67132;SDS011;54052;53.542;49.408;2023-01-08T00:33:37;14.60;;;4.97;;
67132;SDS011;54052;53.542;49.408;2023-01-08T00:39:09;9.70;;;5.47;;
67132;SDS011;54052;53.542;49.408;2023-01-08T00:42:03;7.43;;;5.20;;
67132;SDS011;54052;53.542;49.408;2023-01-08T00:44:58;8.40;;;4.55;;
67132;SDS011;54052;53.542;49.408;2023-01-08T00:47:52;15.52;;;5.05;;
67132;SDS011;54052;53.542;49.408;2023-01-08T00:50:28;7.95;;;4.82;;
67132;SDS011;54052;53.542;49.408;2023-01-08T00:53:04;5.50;;;4.25;;
67132;SDS011;54052;53.542;49.408;2023-01-08T00:55:40;10.35;;;4.78;;
67132;SDS011;54052;53.542;49.408;2023-01-08T00:58:17;8.45;;;4.20;;
67132;SDS011;54052;53.542;49.408;2023-01-08T01:04:06;14.75;;;5.20;;
67132;SDS011;54052;53.542;49.408;2023-01-08T01:06:42;9.80;;;6.05;;
67132;SDS011;54052;53.542;49.408;2023-01-08T01:09:37;11.02;;;6.35;;
67132;SDS011;54052;53.542;49.408;2023-01-08T01:12:13;13.60;;;7.18;;
67132;SDS011;54052;53.542;49.408;2023-01-08T01:14:49;11.77;;;7.28;;
67132;SDS011;54052;53.542;49.408;2023-01-08T01:17:25;12.00;;;5.80;;
67132;SDS011;54052;53.542;49.408;2023-01-08T01:20:02;9.40;;;6.07;;
67132;SDS011;54052;53.542;49.408;2023-01-08T01:22:39;7.78;;;4.97;;
67132;SDS011;54052;53.542;49.408;2023-01-08T01:25:16;6.32;;;4.93;;
67132;SDS011;54052;53.542;49.408;2023-01-08T01:28:10;8.38;;;5.53;;
67132;SDS011;54052;53.542;49.408;2023-01-08T01:30:51;14.25;;;4.90;;
67132;SDS011;54052;53.542;49.408;2023-01-08T01:33:29;6.13;;;4.18;;
67132;SDS011;54052;53.542;49.408;2023-01-08T01:39:00;6.88;;;3.97;;
67132;SDS011;54052;53.542;49.408;2023-01-08T01:44:42;13.05;;;3.55;;
67132;SDS011;54052;53.542;49.408;2023-01-08T01:50:04;6.30;;;4.55;;
67132;SDS011;54052;53.542;49.408;2023-01-08T01:55:37;2.92;;;1.27;;
67132;SDS011;54052;53.542;49.408;2023-01-08T02:01:29;6.35;;;3.90;;
67132;SDS011;54052;53.542;49.408;2023-01-08T02:04:08;6.25;;;3.83;;
67132;SDS011;54052;53.542;49.408;2023-01-08T02:06:53;4.75;;;3.40;;
67132;SDS011;54052;53.542;49.408;2023-01-08T02:13:13;4.70;;;3.20;;
67132;SDS011;54052;53.542;49.408;2023-01-08T02:19:29;4.47;;;3.35;;
67132;SDS011;54052;53.542;49.408;2023-01-08T02:25:34;7.30;;;4.05;;
67132;SDS011;54052;53.542;49.408;2023-01-08T02:28:24;5.47;;;3.42;;
67132;SDS011;54052;53.542;49.408;2023-01-08T02:31:02;6.25;;;3.50;;
67132;SDS011;54052;53.542;49.408;2023-01-08T02:33:40;4.28;;;3.28;;
67132;SDS011;54052;53.542;49.408;2023-01-08T02:54:24;5.35;;;3.28;;
67132;SDS011;54052;53.542;49.408;2023-01-08T02:57:13;5.78;;;3.65;;
67132;SDS011;54052;53.542;49.408;2023-01-08T02:59:51;5.78;;;3.50;;
67132;SDS011;54052;53.542;49.408;2023-01-08T03:02:46;4.15;;;3.05;;
67132;SDS011;54052;53.542;49.408;2023-01-08T03:05:25;5.38;;;3.38;;
67132;SDS011;54052;53.542;49.408;2023-01-08T03:08:02;4.35;;;2.70;;
67132;SDS011;54052;53.542;49.408;2023-01-08T03:11:05;4.30;;;2.65;;
67132;SDS011;54052;53.542;49.408;2023-01-08T03:13:54;4.50;;;3.05;;
67132;SDS011;54052;53.542;49.408;2023-01-08T03:16:46;5.05;;;2.70;;
67132;SDS011;54052;53.542;49.408;2023-01-08T03:19:37;4.47;;;2.53;;
67132;SDS011;54052;53.542;49.408;2023-01-08T03:22:34;4.68;;;2.88;;
67132;SDS011;54052;53.542;49.408;2023-01-08T03:28:14;2.90;;;2.20;;
67132;SDS011;54052;53.542;49.408;2023-01-08T03:30:57;3.08;;;2.10;;
67132;SDS011;54052;53.542;49.408;2023-01-08T03:36:49;3.50;;;2.30;;
67132;SDS011;54052;53.542;49.408;2023-01-08T03:39:29;3.30;;;2.20;;
67132;SDS011;54052;53.542;49.408;2023-01-08T03:42:13;4.90;;;2.35;;
67132;SDS011;54052;53.542;49.408;2023-01-08T03:44:51;3.22;;;2.00;;
67132;SDS011;54052;53.542;49.408;2023-01-08T03:47:45;3.00;;;1.88;;
67132;SDS011;54052;53.542;49.408;2023-01-08T03:50:40;2.80;;;2.13;;
67132;SDS011;54052;53.542;49.408;2023-01-08T03:59:06;4.40;;;3.00;;
67132;SDS011;54052;53.542;49.408;2023-01-08T04:02:20;4.27;;;2.47;;
67132;SDS011;54052;53.542;49.408;2023-01-08T04:04:56;3.88;;;2.90;;
67132;SDS011;54052;53.542;49.408;2023-01-08T04:07:32;2.95;;;1.90;;
67132;SDS011;54052;53.542;49.408;2023-01-08T04:13:03;2.10;;;1.60;;
67132;SDS011;54052;53.542;49.408;2023-01-08T04:18:34;2.20;;;1.67;;
67132;SDS011;54052;53.542;49.408;2023-01-08T04:27:19;3.33;;;2.13;;
67132;SDS011;54052;53.542;49.408;2023-01-08T04:30:13;11.68;;;2.17;;
67132;SDS011;54052;53.542;49.408;2023-01-08T04:32:50;2.97;;;2.55;;
67132;SDS011;54052;53.542;49.408;2023-01-08T04:35:26;5.03;;;1.88;;
67132;SDS011;54052;53.542;49.408;2023-01-08T04:38:02;5.40;;;2.28;;
67132;SDS011;54052;53.542;49.408;2023-01-08T04:40:38;9.43;;;1.83;;
67132;SDS011;54052;53.542;49.408;2023-01-08T04:43:33;2.22;;;1.55;;
67132;SDS011;54052;53.542;49.408;2023-01-08T04:49:04;6.07;;;1.63;;
67132;SDS011;54052;53.542;49.408;2023-01-08T04:51:58;2.63;;;1.75;;
67132;SDS011;54052;53.542;49.408;2023-01-08T04:54:34;1.40;;;1.20;;
67132;SDS011;54052;53.542;49.408;2023-01-08T04:57:10;1.15;;;0.88;;
67132;SDS011;54052;53.542;49.408;2023-01-08T04:59:47;2.30;;;1.10;;
67132;SDS011;54052;53.542;49.408;2023-01-08T05:02:23;2.13;;;1.15;;
67132;SDS011;54052;53.542;49.408;2023-01-08T05:04:59;1.75;;;1.20;;
67132;SDS011;54052;53.542;49.408;2023-01-08T05:07:35;17.35;;;1.75;;
67132;SDS011;54052;53.542;49.408;2023-01-08T05:10:12;8.02;;;1.13;;
67132;SDS011;54052;53.542;49.408;2023-01-08T05:12:48;2.20;;;1.35;;
67132;SDS011;54052;53.542;49.408;2023-01-08T05:15:24;3.60;;;2.42;;
67132;SDS011;54052;53.542;49.408;2023-01-08T05:18:01;6.45;;;3.53;;
67132;SDS011;54052;53.542;49.408;2023-01-08T05:20:39;5.47;;;3.70;;
67132;SDS011;54052;53.542;49.408;2023-01-08T05:23:15;5.57;;;3.25;;
67132;SDS011;54052;53.542;49.408;2023-01-08T05:25:51;4.43;;;2.80;;
67132;SDS011;54052;53.542;49.408;2023-01-08T05:28:27;2.90;;;2.20;;
67132;SDS011;54052;53.542;49.408;2023-01-08T05:31:04;1.55;;;1.23;;
67132;SDS011;54052;53.542;49.408;2023-01-08T05:33:40;1.50;;;0.95;;
67132;SDS011;54052;53.542;49.408;2023-01-08T05:36:16;1.80;;;0.98;;
67132;SDS011;54052;53.542;49.408;2023-01-08T05:38:52;6.78;;;0.80;;
67132;SDS011;54052;53.542;49.408;2023-01-08T05:41:29;0.90;;;0.70;;
67132;SDS011;54052;53.542;49.408;2023-01-08T05:44:05;0.90;;;0.80;;
67132;SDS011;54052;53.542;49.408;2023-01-08T05:46:41;6.07;;;1.00;;
67132;SDS011;54052;53.542;49.408;2023-01-08T05:49:18;2.17;;;1.77;;
67132;SDS011;54052;53.542;49.408;2023-01-08T05:51:56;12.68;;;2.15;;
67132;SDS011;54052;53.542;49.408;2023-01-08T05:54:32;15.40;;;1.92;;
67132;SDS011;54052;53.542;49.408;2023-01-08T05:57:08;32.00;;;3.60;;
67132;SDS011;54052;53.542;49.408;2023-01-08T05:59:44;3.05;;;2.20;;
67132;SDS011;54052;53.542;49.408;2023-01-08T06:02:20;2.53;;;1.38;;
67132;SDS011;54052;53.542;49.408;2023-01-08T06:04:57;1.88;;;1.50;;
67132;SDS011;54052;53.542;49.408;2023-01-08T06:07:33;2.70;;;1.80;;
67132;SDS011;54052;53.542;49.408;2023-01-08T06:10:09;7.45;;;1.85;;
67132;SDS011;54052;53.542;49.408;2023-01-08T06:12:45;3.03;;;1.60;;
67132;SDS011;54052;53.542;49.408;2023-01-08T06:15:21;2.50;;;2.00;;
67132;SDS011;54052;53.542;49.408;2023-01-08T06:18:00;17.27;;;1.92;;
67132;SDS011;54052;53.542;49.408;2023-01-08T06:20:37;4.22;;;2.00;;
67132;SDS011;54052;53.542;49.408;2023-01-08T06:23:13;3.78;;;2.10;;
67132;SDS011;54052;53.542;49.408;2023-01-08T06:25:50;4.70;;;2.83;;
67132;SDS011;54052;53.542;49.408;2023-01-08T06:28:28;24.00;;;2.65;;
67132;SDS011;54052;53.542;49.408;2023-01-08T06:31:04;9.93;;;2.72;;
67132;SDS011;54052;53.542;49.408;2023-01-08T06:33:40;3.78;;;2.53;;
67132;SDS011;54052;53.542;49.408;2023-01-08T06:36:17;3.97;;;2.45;;
67132;SDS011;54052;53.542;49.408;2023-01-08T06:38:53;5.03;;;2.53;;
67132;SDS011;54052;53.542;49.408;2023-01-08T06:41:30;5.90;;;2.92;;
67132;SDS011;54052;53.542;49.408;2023-01-08T06:44:06;18.55;;;3.50;;
67132;SDS011;54052;53.542;49.408;2023-01-08T06:46:42;12.05;;;2.90;;
67132;SDS011;54052;53.542;49.408;2023-01-08T06:49:19;6.35;;;2.55;;
67132;SDS011;54052;53.542;49.408;2023-01-08T06:51:56;3.17;;;2.60;;
67132;SDS011;54052;53.542;49.408;2023-01-08T06:54:32;3.45;;;2.40;;
67132;SDS011;54052;53.542;49.408;2023-01-08T06:57:08;5.70;;;3.42;;
67132;SDS011;54052;53.542;49.408;2023-01-08T06:59:45;3.15;;;2.38;;
67132;SDS011;54052;53.542;49.408;2023-01-08T07:02:21;2.83;;;1.70;;
67132;SDS011;54052;53.542;49.408;2023-01-08T07:04:57;2.35;;;1.60;;
67132;SDS011;54052;53.542;49.408;2023-01-08T07:07:33;3.50;;;1.73;;
67132;SDS011;54052;53.542;49.408;2023-01-08T07:10:09;3.70;;;1.98;;
67132;SDS011;54052;53.542;49.408;2023-01-08T07:12:46;2.63;;;1.73;;
67132;SDS011;54052;53.542;49.408;2023-01-08T07:15:22;5.88;;;1.95;;
67132;SDS011;54052;53.542;49.408;2023-01-08T07:17:58;2.33;;;1.67;;
67132;SDS011;54052;53.542;49.408;2023-01-08T07:20:35;2.40;;;1.80;;
67132;SDS011;54052;53.542;49.408;2023-01-08T07:23:12;2.47;;;1.90;;
67132;SDS011;54052;53.542;49.408;2023-01-08T07:25:48;4.45;;;2.00;;
67132;SDS011;54052;53.542;49.408;2023-01-08T07:28:24;2.95;;;2.22;;
67132;SDS011;54052;53.542;49.408;2023-01-08T07:31:04;2.53;;;1.80;;
67132;SDS011;54052;53.542;49.408;2023-01-08T07:33:41;3.13;;;2.20;;
67132;SDS011;54052;53.542;49.408;2023-01-08T07:36:17;3.22;;;2.03;;
67132;SDS011;54052;53.542;49.408;2023-01-08T07:38:56;2.65;;;2.15;;
67132;SDS011;54052;53.542;49.408;2023-01-08T07:41:33;5.05;;;3.65;;
67132;SDS011;54052;53.542;49.408;2023-01-08T07:44:09;3.30;;;2.20;;
67132;SDS011;54052;53.542;49.408;2023-01-08T07:46:46;6.47;;;2.67;;
67132;SDS011;54052;53.542;49.408;2023-01-08T07:49:22;5.43;;;2.30;;
67132;SDS011;54052;53.542;49.408;2023-01-08T07:51:58;3.75;;;2.55;;
67132;SDS011;54052;53.542;49.408;2023-01-08T07:54:35;3.63;;;2.72;;
67132;SDS011;54052;53.542;49.408;2023-01-08T07:57:11;4.30;;;1.10;;
67132;SDS011;54052;53.542;49.408;2023-01-08T07:59:47;2.72;;;1.02;;
67132;SDS011;54052;53.542;49.408;2023-01-08T08:02:23;2.58;;;1.38;;
67132;SDS011;54052;53.542;49.408;2023-01-08T08:04:59;2.70;;;1.35;;
67132;SDS011;54052;53.542;49.408;2023-01-08T08:07:35;2.53;;;1.10;;
67132;SDS011;54052;53.542;49.408;2023-01-08T08:10:11;3.22;;;1.08;;
67132;SDS011;54052;53.542;49.408;2023-01-08T08:12:48;3.15;;;1.38;;
67132;SDS011;54052;53.542;49.408;2023-01-08T08:15:24;3.40;;;1.65;;
67132;SDS011;54052;53.542;49.408;2023-01-08T08:18:00;2.95;;;1.20;;
67132;SDS011;54052;53.542;49.408;2023-01-08T08:20:36;2.35;;;1.33;;
67132;SDS011;54052;53.542;49.408;2023-01-08T08:23:13;2.33;;;1.42;;
67132;SDS011;54052;53.542;49.408;2023-01-08T08:25:49;2.58;;;1.45;;
67132;SDS011;54052;53.542;49.408;2023-01-08T08:28:26;4.43;;;1.45;;
67132;SDS011;54052;53.542;49.408;2023-01-08T08:31:02;5.75;;;1.20;;
67132;SDS011;54052;53.542;49.408;2023-01-08T08:33:39;2.00;;;1.30;;
67132;SDS011;54052;53.542;49.408;2023-01-08T08:36:15;2.20;;;1.17;;
67132;SDS011;54052;53.542;49.408;2023-01-08T08:38:51;8.18;;;5.10;;
67132;SDS011;54052;53.542;49.408;2023-01-08T08:41:27;58.72;;;5.60;;
67132;SDS011;54052;53.542;49.408;2023-01-08T08:44:04;1.80;;;1.00;;
67132;SDS011;54052;53.542;49.408;2023-01-08T08:46:40;1.63;;;1.13;;
67132;SDS011;54052;53.542;49.408;2023-01-08T08:49:16;2.20;;;1.17;;
67132;SDS011;54052;53.542;49.408;2023-01-08T08:51:52;28.83;;;3.65;;
67132;SDS011;54052;53.542;49.408;2023-01-08T08:54:28;6.68;;;3.30;;
67132;SDS011;54052;53.542;49.408;2023-01-08T08:57:05;14.38;;;4.35;;
67132;SDS011;54052;53.542;49.408;2023-01-08T08:59:41;7.75;;;5.53;;
67132;SDS011;54052;53.542;49.408;2023-01-08T09:02:18;24.08;;;5.50;;
67132;SDS011;54052;53.542;49.408;2023-01-08T09:04:54;10.65;;;6.43;;
67132;SDS011;54052;53.542;49.408;2023-01-08T09:07:30;10.23;;;5.55;;
67132;SDS011;54052;53.542;49.408;2023-01-08T09:10:06;11.25;;;5.82;;
67132;SDS011;54052;53.542;49.408;2023-01-08T09:12:43;10.25;;;5.85;;
67132;SDS011;54052;53.542;49.408;2023-01-08T09:15:19;13.55;;;7.32;;
67132;SDS011;54052;53.542;49.408;2023-01-08T09:17:56;10.32;;;6.95;;
67132;SDS011;54052;53.542;49.408;2023-01-08T09:20:33;5.00;;;1.88;;
67132;SDS011;54052;53.542;49.408;2023-01-08T09:23:09;4.18;;;1.98;;
67132;SDS011;54052;53.542;49.408;2023-01-08T09:25:45;4.75;;;2.20;;
67132;SDS011;54052;53.542;49.408;2023-01-08T09:28:22;5.07;;;2.72;;
67132;SDS011;54052;53.542;49.408;2023-01-08T09:31:02;64.95;;;8.90;;
67132;SDS011;54052;53.542;49.408;2023-01-08T09:33:38;10.02;;;6.13;;
67132;SDS011;54052;53.542;49.408;2023-01-08T09:36:14;12.77;;;6.20;;
67132;SDS011;54052;53.542;49.408;2023-01-08T09:38:51;26.75;;;6.47;;
67132;SDS011;54052;53.542;49.408;2023-01-08T09:41:28;13.07;;;7.15;;
67132;SDS011;54052;53.542;49.408;2023-01-08T09:44:09;41.88;;;7.20;;
67132;SDS011;54052;53.542;49.408;2023-01-08T09:46:52;15.32;;;5.90;;
67132;SDS011;54052;53.542;49.408;2023-01-08T09:49:38;10.50;;;6.53;;
67132;SDS011;54052;53.542;49.408;2023-01-08T09:52:17;303.00;;;19.85;;
67132;SDS011;54052;53.542;49.408;2023-01-08T09:54:53;25.55;;;6.63;;
67132;SDS011;54052;53.542;49.408;2023-01-08T09:57:29;14.18;;;5.82;;
67132;SDS011;54052;53.542;49.408;2023-01-08T10:00:12;22.02;;;6.63;;
67132;SDS011;54052;53.542;49.408;2023-01-08T10:02:50;19.10;;;6.03;;
67132;SDS011;54052;53.542;49.408;2023-01-08T10:05:28;43.35;;;6.05;;
67132;SDS011;54052;53.542;49.408;2023-01-08T10:08:05;34.88;;;6.55;;
67132;SDS011;54052;53.542;49.408;2023-01-08T10:10:41;14.55;;;6.53;;
67132;SDS011;54052;53.542;49.408;2023-01-08T10:13:18;9.63;;;6.30;;
67132;SDS011;54052;53.542;49.408;2023-01-08T10:15:54;16.35;;;6.43;;
67132;SDS011;54052;53.542;49.408;2023-01-08T10:18:31;11.18;;;6.68;;
67132;SDS011;54052;53.542;49.408;2023-01-08T10:21:09;8.82;;;2.55;;
67132;SDS011;54052;53.542;49.408;2023-01-08T10:23:52;11.38;;;7.00;;
67132;SDS011;54052;53.542;49.408;2023-01-08T10:26:32;17.17;;;7.07;;
67132;SDS011;54052;53.542;49.408;2023-01-08T10:29:19;14.20;;;7.00;;
67132;SDS011;54052;53.542;49.408;2023-01-08T10:31:55;11.02;;;6.25;;
67132;SDS011;54052;53.542;49.408;2023-01-08T10:34:51;29.27;;;7.05;;
67132;SDS011;54052;53.542;49.408;2023-01-08T10:37:40;9.35;;;6.88;;
67132;SDS011;54052;53.542;49.408;2023-01-08T10:43:17;11.23;;;7.05;;
67132;SDS011;54052;53.542;49.408;2023-01-08T10:46:22;18.38;;;7.50;;
67132;SDS011;54052;53.542;49.408;2023-01-08T10:49:26;74.32;;;8.38;;
67132;SDS011;54052;53.542;49.408;2023-01-08T10:56:02;8.97;;;6.47;;
67132;SDS011;54052;53.542;49.408;2023-01-08T11:00:44;20.23;;;5.95;;
67132;SDS011;54052;53.542;49.408;2023-01-08T11:06:10;30.33;;;7.20;;
67132;SDS011;54052;53.542;49.408;2023-01-08T11:08:49;17.13;;;7.82;;
67132;SDS011;54052;53.542;49.408;2023-01-08T11:11:34;15.05;;;6.15;;
67132;SDS011;54052;53.542;49.408;2023-01-08T11:17:14;10.50;;;6.75;;
67132;SDS011;54052;53.542;49.408;2023-01-08T11:19:50;10.38;;;6.03;;
67132;SDS011;54052;53.542;49.408;2023-01-08T11:22:26;6.80;;;5.70;;
67132;SDS011;54052;53.542;49.408;2023-01-08T11:25:04;8.75;;;5.68;;
67132;SDS011;54052;53.542;49.408;2023-01-08T11:27:47;8.30;;;5.35;;
67132;SDS011;54052;53.542;49.408;2023-01-08T11:30:25;6.93;;;5.53;;
67132;SDS011;54052;53.542;49.408;2023-01-08T11:33:15;10.02;;;6.43;;
67132;SDS011;54052;53.542;49.408;2023-01-08T11:35:58;7.72;;;5.47;;
67132;SDS011;54052;53.542;49.408;2023-01-08T11:38:42;8.15;;;6.43;;
67132;SDS011;54052;53.542;49.408;2023-01-08T11:41:42;10.38;;;7.22;;
67132;SDS011;54052;53.542;49.408;2023-01-08T11:50:21;12.60;;;7.57;;
67132;SDS011;54052;53.542;49.408;2023-01-08T11:56:19;24.80;;;6.68;;
67132;SDS011;54052;53.542;49.408;2023-01-08T11:59:13;9.27;;;5.88;;
67132;SDS011;54052;53.542;49.408;2023-01-08T12:11:11;35.80;;;11.07;;
67132;SDS011;54052;53.542;49.408;2023-01-08T12:28:57;10.07;;;6.20;;
67132;SDS011;54052;53.542;49.408;2023-01-08T12:40:37;14.65;;;6.90;;
67132;SDS011;54052;53.542;49.408;2023-01-08T12:43:59;10.05;;;6.70;;
67132;SDS011;54052;53.542;49.408;2023-01-08T12:46:35;10.50;;;6.70;;
67132;SDS011;54052;53.542;49.408;2023-01-08T12:49:20;8.85;;;6.82;;
67132;SDS011;54052;53.542;49.408;2023-01-08T12:52:15;8.82;;;6.22;;
67132;SDS011;54052;53.542;49.408;2023-01-08T12:55:12;21.95;;;7.70;;
67132;SDS011;54052;53.542;49.408;2023-01-08T13:04:05;9.80;;;6.80;;
67132;SDS011;54052;53.542;49.408;2023-01-08T13:07:45;12.48;;;7.13;;
67132;SDS011;54052;53.542;49.408;2023-01-08T13:09:56;9.88;;;6.90;;
67132;SDS011;54052;53.542;49.408;2023-01-08T13:12:37;11.38;;;7.32;;
67132;SDS011;54052;53.542;49.408;2023-01-08T13:15:19;9.85;;;7.10;;
67132;SDS011;54052;53.542;49.408;2023-01-08T13:18:14;10.90;;;6.95;;
67132;SDS011;54052;53.542;49.408;2023-01-08T13:20:54;11.57;;;7.10;;
67132;SDS011;54052;53.542;49.408;2023-01-08T13:23:33;11.90;;;8.80;;
67132;SDS011;54052;53.542;49.408;2023-01-08T13:26:10;11.52;;;8.98;;
67132;SDS011;54052;53.542;49.408;2023-01-08T13:28:52;14.80;;;10.18;;
67132;SDS011;54052;53.542;49.408;2023-01-08T13:31:28;13.65;;;10.73;;
67132;SDS011;54052;53.542;49.408;2023-01-08T13:34:18;10.57;;;9.18;;
67132;SDS011;54052;53.542;49.408;2023-01-08T13:37:10;12.50;;;9.45;;
67132;SDS011;54052;53.542;49.408;2023-01-08T13:39:46;12.40;;;8.27;;
67132;SDS011;54052;53.542;49.408;2023-01-08T13:42:24;12.30;;;8.73;;
67132;SDS011;54052;53.542;49.408;2023-01-08T13:45:03;12.43;;;8.05;;
67132;SDS011;54052;53.542;49.408;2023-01-08T13:47:43;12.23;;;8.60;;
67132;SDS011;54052;53.542;49.408;2023-01-08T13:50:21;12.07;;;7.88;;
67132;SDS011;54052;53.542;49.408;2023-01-08T13:55:38;8.38;;;6.70;;
67132;SDS011;54052;53.542;49.408;2023-01-08T13:58:18;9.80;;;7.13;;
67132;SDS011;54052;53.542;49.408;2023-01-08T14:00:59;10.07;;;7.40;;
67132;SDS011;54052;53.542;49.408;2023-01-08T14:03:43;11.95;;;7.53;;
67132;SDS011;54052;53.542;49.408;2023-01-08T14:06:21;12.32;;;7.68;;
67132;SDS011;54052;53.542;49.408;2023-01-08T14:09:01;12.65;;;6.82;;
67132;SDS011;54052;53.542;49.408;2023-01-08T14:11:42;10.75;;;6.95;;
67132;SDS011;54052;53.542;49.408;2023-01-08T14:14:21;10.88;;;7.22;;
67132;SDS011;54052;53.542;49.408;2023-01-08T14:17:01;13.98;;;8.70;;
67132;SDS011;54052;53.542;49.408;2023-01-08T14:19:41;18.88;;;11.70;;
67132;SDS011;54052;53.542;49.408;2023-01-08T14:22:19;12.40;;;9.07;;
67132;SDS011;54052;53.542;49.408;2023-01-08T14:25:07;13.52;;;7.57;;
67132;SDS011;54052;53.542;49.408;2023-01-08T14:27:55;9.63;;;6.43;;
67132;SDS011;54052;53.542;49.408;2023-01-08T14:30:33;11.57;;;7.13;;
67132;SDS011;54052;53.542;49.408;2023-01-08T14:33:10;14.00;;;9.13;;
67132;SDS011;54052;53.542;49.408;2023-01-08T14:35:47;17.77;;;10.77;;
67132;SDS011;54052;53.542;49.408;2023-01-08T14:38:25;23.45;;;13.80;;
67132;SDS011;54052;53.542;49.408;2023-01-08T14:41:09;26.65;;;14.65;;
67132;SDS011;54052;53.542;49.408;2023-01-08T14:43:50;22.58;;;13.52;;
67132;SDS011;54052;53.542;49.408;2023-01-08T14:46:29;20.63;;;12.30;;
67132;SDS011;54052;53.542;49.408;2023-01-08T14:49:11;18.63;;;12.55;;
67132;SDS011;54052;53.542;49.408;2023-01-08T14:52:19;12.75;;;9.45;;
67132;SDS011;54052;53.542;49.408;2023-01-08T14:54:56;11.73;;;8.73;;
67132;SDS011;54052;53.542;49.408;2023-01-08T14:57:35;10.73;;;7.60;;
67132;SDS011;54052;53.542;49.408;2023-01-08T15:00:16;11.00;;;6.20;;
67132;SDS011;54052;53.542;49.408;2023-01-08T15:02:58;10.40;;;8.05;;
67132;SDS011;54052;53.542;49.408;2023-01-08T15:05:34;11.93;;;8.35;;
67132;SDS011;54052;53.542;49.408;2023-01-08T15:11:04;13.77;;;9.07;;
67132;SDS011;54052;53.542;49.408;2023-01-08T15:13:50;10.45;;;7.47;;
67132;SDS011;54052;53.542;49.408;2023-01-08T15:16:32;8.75;;;6.45;;
67132;SDS011;54052;53.542;49.408;2023-01-08T15:19:18;9.63;;;6.70;;
67132;SDS011;54052;53.542;49.408;2023-01-08T15:21:58;8.65;;;5.88;;
67132;SDS011;54052;53.542;49.408;2023-01-08T15:24:36;10.13;;;5.70;;
67132;SDS011;54052;53.542;49.408;2023-01-08T15:27:17;7.78;;;5.70;;
67132;SDS011;54052;53.542;49.408;2023-01-08T15:29:55;9.20;;;5.78;;
67132;SDS011;54052;53.542;49.408;2023-01-08T15:32:35;7.60;;;5.38;;
67132;SDS011;54052;53.542;49.408;2023-01-08T15:35:14;7.90;;;5.50;;
67132;SDS011;54052;53.542;49.408;2023-01-08T15:37:51;8.93;;;6.18;;
67132;SDS011;54052;53.542;49.408;2023-01-08T15:40:28;8.15;;;5.55;;
67132;SDS011;54052;53.542;49.408;2023-01-08T15:43:04;10.48;;;6.15;;
67132;SDS011;54052;53.542;49.408;2023-01-08T15:45:47;8.02;;;5.65;;
67132;SDS011;54052;53.542;49.408;2023-01-08T15:48:25;9.50;;;6.07;;
67132;SDS011;54052;53.542;49.408;2023-01-08T15:51:02;9.13;;;5.97;;
67132;SDS011;54052;53.542;49.408;2023-01-08T15:53:39;9.70;;;6.55;;
67132;SDS011;54052;53.542;49.408;2023-01-08T15:56:17;9.63;;;6.70;;
67132;SDS011;54052;53.542;49.408;2023-01-08T15:58:54;10.40;;;6.13;;
67132;SDS011;54052;53.542;49.408;2023-01-08T16:01:31;8.75;;;5.97;;
67132;SDS011;54052;53.542;49.408;2023-01-08T16:04:07;7.70;;;5.72;;
67132;SDS011;54052;53.542;49.408;2023-01-08T16:06:43;10.02;;;6.60;;
67132;SDS011;54052;53.542;49.408;2023-01-08T16:09:23;10.73;;;7.40;;
67132;SDS011;54052;53.542;49.408;2023-01-08T16:11:59;9.23;;;6.03;;
67132;SDS011;54052;53.542;49.408;2023-01-08T16:14:35;7.90;;;6.18;;
67132;SDS011;54052;53.542;49.408;2023-01-08T16:17:14;9.23;;;6.47;;
67132;SDS011;54052;53.542;49.408;2023-01-08T16:19:51;9.48;;;6.32;;
67132;SDS011;54052;53.542;49.408;2023-01-08T16:22:27;9.57;;;5.85;;
67132;SDS011;54052;53.542;49.408;2023-01-08T16:25:03;8.93;;;5.38;;
67132;SDS011;54052;53.542;49.408;2023-01-08T16:27:40;8.68;;;5.70;;
67132;SDS011;54052;53.542;49.408;2023-01-08T16:30:17;8.82;;;6.10;;
67132;SDS011;54052;53.542;49.408;2023-01-08T16:32:54;9.02;;;5.57;;
67132;SDS011;54052;53.542;49.408;2023-01-08T16:35:30;6.93;;;5.40;;
67132;SDS011;54052;53.542;49.408;2023-01-08T16:38:06;9.85;;;5.70;;
67132;SDS011;54052;53.542;49.408;2023-01-08T16:40:45;8.68;;;6.03;;
67132;SDS011;54052;53.542;49.408;2023-01-08T16:43:22;8.32;;;5.80;;
67132;SDS011;54052;53.542;49.408;2023-01-08T16:46:00;9.07;;;6.30;;
67132;SDS011;54052;53.542;49.408;2023-01-08T16:48:40;9.88;;;5.85;;
67132;SDS011;54052;53.542;49.408;2023-01-08T16:51:17;9.50;;;6.13;;
67132;SDS011;54052;53.542;49.408;2023-01-08T16:53:55;9.02;;;6.03;;
67132;SDS011;54052;53.542;49.408;2023-01-08T16:56:31;4.43;;;2.50;;
67132;SDS011;54052;53.542;49.408;2023-01-08T16:59:09;6.97;;;2.58;;
67132;SDS011;54052;53.542;49.408;2023-01-08T17:01:45;10.05;;;6.38;;
67132;SDS011;54052;53.542;49.408;2023-01-08T17:04:24;8.52;;;6.15;;
67132;SDS011;54052;53.542;49.408;2023-01-08T17:07:02;9.10;;;6.22;;
67132;SDS011;54052;53.542;49.408;2023-01-08T17:09:41;9.60;;;6.78;;
67132;SDS011;54052;53.542;49.408;2023-01-08T17:12:17;9.25;;;6.25;;
67132;SDS011;54052;53.542;49.408;2023-01-08T17:14:56;8.75;;;6.20;;
67132;SDS011;54052;53.542;49.408;2023-01-08T17:17:33;8.90;;;6.45;;
67132;SDS011;54052;53.542;49.408;2023-01-08T17:20:09;10.90;;;6.70;;
67132;SDS011;54052;53.542;49.408;2023-01-08T17:22:45;10.20;;;7.45;;
67132;SDS011;54052;53.542;49.408;2023-01-08T17:25:22;8.95;;;6.57;;
67132;SDS011;54052;53.542;49.408;2023-01-08T17:27:58;11.27;;;7.20;;
67132;SDS011;54052;53.542;49.408;2023-01-08T17:30:34;10.07;;;6.53;;
67132;SDS011;54052;53.542;49.408;2023-01-08T17:33:10;10.23;;;7.07;;
67132;SDS011;54052;53.542;49.408;2023-01-08T17:35:46;10.27;;;7.10;;
67132;SDS011;54052;53.542;49.408;2023-01-08T17:38:23;8.82;;;7.07;;
67132;SDS011;54052;53.542;49.408;2023-01-08T17:41:00;8.85;;;6.63;;
67132;SDS011;54052;53.542;49.408;2023-01-08T17:43:37;11.15;;;6.50;;
67132;SDS011;54052;53.542;49.408;2023-01-08T17:46:13;7.60;;;6.60;;
67132;SDS011;54052;53.542;49.408;2023-01-08T17:48:49;8.05;;;6.68;;
67132;SDS011;54052;53.542;49.408;2023-01-08T17:51:26;8.75;;;6.90;;
67132;SDS011;54052;53.542;49.408;2023-01-08T17:54:02;9.73;;;6.85;;
67132;SDS011;54052;53.542;49.408;2023-01-08T17:56:39;9.68;;;6.72;;
67132;SDS011;54052;53.542;49.408;2023-01-08T17:59:18;9.57;;;6.55;;
67132;SDS011;54052;53.542;49.408;2023-01-08T18:01:58;7.03;;;5.53;;
67132;SDS011;54052;53.542;49.408;2023-01-08T18:04:35;8.15;;;6.10;;
67132;SDS011;54052;53.542;49.408;2023-01-08T18:07:12;7.88;;;5.60;;
67132;SDS011;54052;53.542;49.408;2023-01-08T18:09:49;8.43;;;5.63;;
67132;SDS011;54052;53.542;49.408;2023-01-08T18:12:28;8.23;;;6.25;;
67132;SDS011;54052;53.542;49.408;2023-01-08T18:15:06;8.75;;;6.00;;
67132;SDS011;54052;53.542;49.408;2023-01-08T18:17:43;9.80;;;6.55;;
67132;SDS011;54052;53.542;49.408;2023-01-08T18:20:19;9.20;;;6.03;;
67132;SDS011;54052;53.542;49.408;2023-01-08T18:22:56;10.02;;;5.18;;